Nellis Air Force Base
KLSV : now visible

Airfield :











YOU CAN JOIN US ON...

 
LOGIN :

Register | Disclaimer

   EN    FR    IT 

 









Legend :    VFR   Marginal VFR   IFR   Intensive IFR   Very Intensive IFR
Visi :
Ceiling :
>= 8 km
>= 3000ft
5 to 8 km
1000 to 3000 ft
1500m to 5 km
500 to 1000 ft
800 to 1500m
200 to 500 ft
< 800m
< 200 ft
Symbols :   Thunderstorms  Fog  Heavy snow  Heavy precipitations  Wind > 20 kt






- Airport Elevation : 1870 ft


KLSV - Nellis Air Force Base

CURRENT METAR :
  • 301558Z AUTO 08008KT 10SM BKN110 29/18 A3002 RMK AO2 SLP141 T02910176 $

EXPIRED METARs :
  • 301458Z AUTO 08007KT 10SM BKN120 29/18 A3001 RMK AO2 SLP138 T02850180 52015 $
  • 301358Z AUTO 06010KT 10SM OVC130 28/18 A2999 RMK AO2 SLP129 T02810179 $

TAF TAF KLSV
Valid from the 30 at 15:00 until the 31 at 21:00 UTC


301500Z 3015/3121 07008KT 9999 BKN120 QNH3001INS
BECMG 3017/3018 15010G15KT 9999 SCT120 BKN150 QNH2996INS
BECMG 3022/3023 VRB15G25KT 9999 VCTS FEW100CB BKN150 QNH2994INS
TEMPO 3023/3105 VRB25G35KT -TSRA
BECMG 3107/3108 32006KT 9999 NSW BKN120 QNH2999INS TX35/3023Z TN29/3015Z
KZLA FIR / North America



MET'MAP, your aeronautical weather chart ! - Copyright ORBIFLY December 2007 - Disclaimer

ORBIFLY MET'MAP TEAM :

Programming & Development : Alexandra Zaïnal
Concept & original design : Baudouin d'Aumeries
Assistance for programming : Marc-Olivier Méhu
Technical & hardware support : Manuel Goepfert

Contact : metmap@orbifly.com




SOURCES & CREDITS :

   NOAA       Earth
Advisory